createdAt,value
2018-05-31T00:00:18.722Z,10.43
2018-05-31T00:02:47.192Z,13.67
2018-05-31T00:05:15.620Z,13.00
2018-05-31T00:07:44.050Z,9.57
2018-05-31T00:10:12.545Z,11.23
2018-05-31T00:12:40.975Z,11.13
2018-05-31T00:15:09.391Z,9.57
2018-05-31T00:17:37.856Z,12.43
2018-05-31T00:20:06.293Z,10.60
2018-05-31T00:22:34.748Z,14.20
2018-05-31T00:25:03.229Z,11.47
2018-05-31T00:27:31.663Z,10.30
2018-05-31T00:30:00.093Z,12.03
2018-05-31T00:32:28.566Z,13.40
2018-05-31T00:34:57.021Z,12.73
2018-05-31T00:37:25.448Z,13.57
2018-05-31T00:39:53.938Z,10.70
2018-05-31T00:42:22.360Z,10.33
2018-05-31T00:44:50.780Z,9.30
2018-05-31T00:47:19.273Z,9.77
2018-05-31T00:49:47.710Z,9.67
2018-05-31T00:52:16.143Z,8.80
2018-05-31T00:54:44.633Z,11.77
2018-05-31T00:57:13.061Z,16.80
2018-05-31T00:59:41.504Z,12.33
2018-05-31T01:02:09.980Z,14.43
2018-05-31T01:04:38.431Z,12.47
2018-05-31T01:07:06.897Z,13.40
2018-05-31T01:09:35.373Z,10.83
2018-05-31T01:12:03.808Z,10.70
2018-05-31T01:14:32.245Z,12.63
2018-05-31T01:17:00.715Z,12.70
2018-05-31T01:19:29.153Z,14.90
2018-05-31T01:21:57.599Z,13.63
2018-05-31T01:24:26.080Z,12.27
2018-05-31T01:26:54.517Z,13.33
2018-05-31T01:29:22.961Z,12.93
2018-05-31T01:31:51.428Z,11.53
2018-05-31T01:34:19.868Z,17.60
2018-05-31T01:36:48.320Z,14.50
2018-05-31T01:39:17.765Z,14.90
2018-05-31T01:41:46.212Z,14.37
2018-05-31T01:44:14.656Z,10.63
2018-05-31T01:46:43.139Z,12.67
2018-05-31T01:49:11.582Z,15.20
2018-05-31T01:51:40.045Z,14.83
2018-05-31T01:54:08.517Z,13.90
2018-05-31T01:56:36.964Z,13.50
2018-05-31T01:59:05.424Z,14.13
2018-05-31T02:01:33.920Z,15.27
2018-05-31T02:04:02.369Z,13.70
2018-05-31T02:06:30.805Z,12.87
2018-05-31T02:08:59.288Z,14.83
2018-05-31T02:11:27.749Z,13.70
2018-05-31T02:13:56.204Z,13.10
2018-05-31T02:16:24.702Z,16.53
2018-05-31T02:18:53.147Z,13.17
2018-05-31T02:21:21.597Z,15.37
2018-05-31T02:23:50.112Z,15.60
2018-05-31T02:26:18.542Z,18.03
2018-05-31T02:28:46.980Z,16.03
2018-05-31T02:31:15.468Z,15.33
2018-05-31T02:33:43.921Z,16.70
2018-05-31T02:36:12.388Z,18.30
2018-05-31T02:38:40.881Z,17.20
2018-05-31T02:41:09.324Z,19.73
2018-05-31T02:43:37.762Z,17.20
2018-05-31T02:46:06.241Z,14.10
2018-05-31T02:48:34.707Z,15.13
2018-05-31T02:51:03.148Z,15.03
2018-05-31T02:53:31.628Z,14.33
2018-05-31T02:56:00.069Z,16.50
2018-05-31T02:58:28.504Z,16.23
2018-05-31T03:00:57.016Z,16.50
2018-05-31T03:03:25.445Z,19.67
2018-05-31T03:05:53.884Z,16.30
2018-05-31T03:08:22.356Z,15.20
2018-05-31T03:10:50.810Z,14.80
2018-05-31T03:13:19.278Z,15.90
2018-05-31T03:15:47.778Z,15.27
2018-05-31T03:18:16.209Z,15.83
2018-05-31T03:20:44.639Z,17.50
2018-05-31T03:23:13.121Z,11.43
2018-05-31T03:25:41.573Z,14.20
2018-05-31T03:28:10.008Z,11.20
2018-05-31T03:30:38.529Z,12.77
2018-05-31T03:33:06.975Z,11.93
2018-05-31T03:35:35.418Z,13.60
2018-05-31T03:38:03.912Z,13.47
2018-05-31T03:40:32.377Z,16.67
2018-05-31T03:43:00.810Z,11.90
2018-05-31T03:45:29.294Z,11.17
2018-05-31T03:47:57.732Z,14.07
2018-05-31T03:50:26.568Z,12.90
2018-05-31T03:52:55.064Z,11.67
2018-05-31T03:55:23.501Z,14.80
2018-05-31T03:57:51.946Z,11.53
2018-05-31T04:00:20.429Z,12.03
2018-05-31T04:02:48.880Z,11.17
2018-05-31T04:05:17.335Z,13.23
2018-05-31T04:07:45.827Z,13.77
2018-05-31T04:10:14.257Z,13.47
2018-05-31T04:12:42.703Z,13.97
2018-05-31T04:15:11.632Z,15.13
2018-05-31T04:17:40.103Z,15.10
2018-05-31T04:20:08.549Z,13.70
2018-05-31T04:22:37.024Z,16.00
2018-05-31T04:25:05.483Z,16.30
2018-05-31T04:27:33.937Z,15.43
2018-05-31T04:30:02.432Z,13.80
2018-05-31T04:32:30.873Z,12.87
2018-05-31T04:34:59.309Z,11.93
2018-05-31T04:37:27.784Z,12.70
2018-05-31T04:39:56.237Z,12.80
2018-05-31T04:42:24.693Z,12.27
2018-05-31T04:44:53.176Z,11.30
2018-05-31T04:47:21.619Z,13.23
2018-05-31T04:49:50.080Z,12.80
2018-05-31T04:52:18.577Z,13.43
2018-05-31T04:54:47.031Z,13.47
2018-05-31T04:57:15.492Z,14.30
2018-05-31T04:59:43.987Z,16.70
2018-05-31T05:02:12.437Z,14.40
2018-05-31T05:04:40.906Z,13.37
2018-05-31T05:07:09.388Z,13.03
2018-05-31T05:09:37.834Z,13.33
2018-05-31T05:12:06.315Z,15.70
2018-05-31T05:14:34.837Z,17.43
2018-05-31T05:17:03.305Z,17.23
2018-05-31T05:19:31.756Z,19.23
2018-05-31T05:22:00.262Z,19.37
2018-05-31T05:24:28.711Z,20.40
2018-05-31T05:26:57.156Z,19.97
2018-05-31T05:29:25.676Z,21.57
2018-05-31T05:31:54.116Z,19.50
2018-05-31T05:34:22.539Z,21.13
2018-05-31T05:36:51.038Z,23.43
2018-05-31T05:39:19.513Z,19.70
2018-05-31T05:41:47.976Z,20.03
2018-05-31T05:44:16.444Z,17.90
2018-05-31T05:46:44.884Z,17.27
2018-05-31T05:49:13.317Z,16.43
2018-05-31T05:51:41.821Z,16.80
2018-05-31T05:54:10.262Z,20.00
2018-05-31T05:56:38.705Z,18.20
2018-05-31T05:59:07.199Z,21.33
2018-05-31T06:01:35.647Z,18.60
2018-05-31T06:04:04.120Z,18.87
2018-05-31T06:06:32.621Z,19.63
2018-05-31T06:09:01.089Z,19.50
2018-05-31T06:11:29.517Z,19.93
2018-05-31T06:13:57.997Z,20.77
2018-05-31T06:16:26.420Z,21.10
2018-05-31T06:18:54.852Z,19.97
2018-05-31T06:21:23.312Z,19.20
2018-05-31T06:23:51.754Z,21.40
2018-05-31T06:26:20.234Z,19.53
2018-05-31T06:28:48.674Z,19.40
2018-05-31T06:31:17.116Z,18.53
2018-05-31T06:33:45.575Z,20.23
2018-05-31T06:36:14.066Z,21.60
2018-05-31T06:38:42.484Z,18.17
2018-05-31T06:41:10.921Z,18.37
2018-05-31T06:43:39.385Z,17.00
2018-05-31T06:46:07.799Z,17.20
2018-05-31T06:48:36.216Z,17.30
2018-05-31T06:51:04.701Z,16.50
2018-05-31T06:53:33.112Z,16.67
2018-05-31T06:56:01.524Z,17.00
2018-05-31T06:58:30.005Z,18.93
2018-05-31T07:00:58.421Z,21.07
2018-05-31T07:03:26.850Z,17.43
2018-05-31T07:05:55.341Z,16.20
2018-05-31T07:08:23.768Z,16.13
2018-05-31T07:10:52.220Z,15.40
2018-05-31T07:13:20.685Z,16.63
2018-05-31T07:15:49.196Z,14.07
2018-05-31T07:18:17.617Z,14.60
2018-05-31T07:20:46.068Z,15.60
2018-05-31T07:23:14.493Z,14.33
2018-05-31T07:25:42.923Z,16.77
2018-05-31T07:28:11.402Z,11.70
2018-05-31T07:30:39.832Z,11.32
2018-05-31T07:33:08.253Z,11.02
2018-05-31T07:35:36.708Z,11.63
2018-05-31T07:38:05.117Z,11.47
2018-05-31T07:40:33.577Z,12.30
2018-05-31T07:43:02.039Z,11.77
2018-05-31T07:45:30.448Z,9.82
2018-05-31T07:47:58.864Z,11.82
2018-05-31T07:50:27.317Z,9.80
2018-05-31T07:52:55.740Z,11.15
2018-05-31T07:55:24.162Z,11.73
2018-05-31T07:57:52.628Z,12.27
2018-05-31T08:00:21.036Z,10.82
2018-05-31T08:02:49.456Z,12.43
2018-05-31T08:05:17.919Z,10.55
2018-05-31T08:07:46.344Z,9.27
2018-05-31T08:10:14.774Z,9.85
2018-05-31T08:12:43.220Z,10.75
2018-05-31T08:15:11.627Z,9.55
2018-05-31T08:17:40.036Z,10.88
2018-05-31T08:20:08.521Z,9.90
2018-05-31T08:22:36.925Z,9.80
2018-05-31T08:25:05.333Z,11.95
2018-05-31T08:27:33.797Z,11.63
2018-05-31T08:30:02.232Z,12.13
2018-05-31T08:32:30.657Z,12.95
2018-05-31T08:34:59.217Z,15.15
2018-05-31T08:37:27.637Z,16.40
2018-05-31T08:39:56.073Z,14.60
2018-05-31T08:42:24.524Z,12.15
2018-05-31T08:44:52.929Z,9.98
2018-05-31T08:47:21.339Z,9.93
2018-05-31T08:49:49.784Z,9.35
2018-05-31T08:52:18.201Z,9.32
2018-05-31T08:54:46.608Z,10.60
2018-05-31T08:57:15.062Z,11.48
2018-05-31T08:59:43.472Z,10.90
2018-05-31T09:02:11.889Z,13.52
2018-05-31T09:04:40.361Z,8.70
2018-05-31T09:07:08.781Z,12.27
2018-05-31T09:09:37.200Z,10.90
2018-05-31T09:12:06.502Z,10.95
2018-05-31T09:14:34.930Z,10.00
2018-05-31T09:17:03.376Z,10.57
2018-05-31T09:19:31.844Z,10.55
2018-05-31T09:22:00.283Z,11.25
2018-05-31T09:24:28.730Z,11.02
2018-05-31T09:26:57.192Z,11.80
2018-05-31T09:29:25.645Z,11.25
2018-05-31T09:31:54.070Z,10.60
2018-05-31T09:34:22.520Z,10.15
2018-05-31T09:36:50.949Z,10.13
2018-05-31T09:39:19.372Z,12.02
2018-05-31T09:41:47.848Z,10.30
2018-05-31T09:44:16.256Z,8.55
2018-05-31T09:46:44.665Z,8.40
2018-05-31T09:49:13.120Z,8.23
2018-05-31T09:51:41.524Z,7.87
2018-05-31T09:54:09.932Z,9.63
2018-05-31T09:56:38.388Z,8.55
2018-05-31T09:59:06.820Z,9.52
2018-05-31T10:01:35.236Z,8.88
2018-05-31T10:04:03.689Z,8.32
2018-05-31T10:06:32.106Z,11.68
2018-05-31T10:09:00.526Z,9.60
2018-05-31T10:11:28.972Z,9.30
2018-05-31T10:13:57.384Z,9.75
2018-05-31T10:16:25.799Z,8.02
2018-05-31T10:18:54.257Z,8.80
2018-05-31T10:21:22.668Z,7.18
2018-05-31T10:23:51.068Z,8.93
2018-05-31T10:26:19.521Z,7.45
2018-05-31T10:28:47.922Z,7.28
2018-05-31T10:31:16.337Z,6.70
2018-05-31T10:33:44.784Z,10.57
2018-05-31T10:36:13.198Z,9.63
2018-05-31T10:38:41.604Z,8.48
2018-05-31T10:41:10.056Z,7.45
2018-05-31T10:43:38.469Z,7.93
2018-05-31T10:46:06.906Z,8.50
2018-05-31T10:48:35.378Z,10.15
2018-05-31T10:51:03.784Z,10.48
2018-05-31T10:53:32.204Z,11.00
2018-05-31T10:56:00.656Z,9.20
2018-05-31T10:58:29.074Z,10.23
2018-05-31T11:00:57.492Z,11.35
2018-05-31T11:03:25.955Z,10.38
2018-05-31T11:05:54.371Z,13.40
2018-05-31T11:08:22.793Z,12.10
2018-05-31T11:10:51.261Z,12.88
2018-05-31T11:13:19.676Z,11.65
2018-05-31T11:15:48.090Z,9.75
2018-05-31T11:18:16.540Z,8.70
2018-05-31T11:20:44.963Z,12.02
2018-05-31T11:23:13.371Z,9.23
2018-05-31T11:25:41.821Z,9.60
2018-05-31T11:28:10.232Z,8.32
2018-05-31T11:30:38.647Z,7.68
2018-05-31T11:33:07.110Z,8.63
2018-05-31T11:35:35.524Z,8.85
2018-05-31T11:38:03.945Z,8.95
2018-05-31T11:40:32.405Z,8.85
2018-05-31T11:43:00.809Z,8.10
2018-05-31T11:45:29.221Z,8.98
2018-05-31T11:47:57.661Z,8.52
2018-05-31T11:50:26.080Z,10.63
2018-05-31T11:52:54.502Z,13.05
2018-05-31T11:55:22.960Z,10.32
2018-05-31T11:57:51.435Z,12.20
2018-05-31T12:00:19.864Z,12.05
2018-05-31T12:02:48.332Z,12.63
2018-05-31T12:05:16.766Z,11.93
2018-05-31T12:07:45.195Z,13.18
2018-05-31T12:10:13.677Z,11.85
2018-05-31T12:12:42.093Z,13.43
2018-05-31T12:15:10.516Z,12.48
2018-05-31T12:17:39.021Z,16.85
2018-05-31T12:20:07.451Z,17.05
2018-05-31T12:22:35.879Z,16.42
2018-05-31T12:25:04.373Z,13.85
2018-05-31T12:27:32.793Z,14.80
2018-05-31T12:30:01.213Z,15.57
2018-05-31T12:32:29.684Z,15.32
2018-05-31T12:34:58.099Z,16.37
2018-05-31T12:37:26.520Z,16.15
2018-05-31T12:39:54.980Z,17.15
2018-05-31T12:42:23.409Z,16.00
2018-05-31T12:44:51.825Z,17.02
2018-05-31T12:47:20.305Z,16.23
2018-05-31T12:49:48.725Z,17.70
2018-05-31T12:52:17.177Z,16.20
2018-05-31T12:54:45.672Z,13.82
2018-05-31T12:57:14.092Z,11.68
2018-05-31T12:59:42.529Z,13.38
2018-05-31T13:02:11.012Z,13.62
2018-05-31T13:04:39.433Z,15.38
2018-05-31T13:07:07.857Z,13.62
2018-05-31T13:09:36.324Z,11.35
2018-05-31T13:12:04.787Z,11.30
2018-05-31T13:14:33.218Z,7.80
2018-05-31T13:17:01.667Z,8.50
2018-05-31T13:19:30.073Z,8.85
2018-05-31T13:21:58.511Z,23.48
2018-05-31T13:24:26.969Z,10.63
2018-05-31T13:26:55.396Z,12.40
2018-05-31T13:29:23.817Z,11.90
2018-05-31T13:31:52.283Z,10.60
2018-05-31T13:34:20.692Z,10.77
2018-05-31T13:36:49.111Z,9.98
2018-05-31T13:39:17.561Z,9.55
2018-05-31T13:41:45.989Z,10.30
2018-05-31T13:44:14.408Z,10.40
2018-05-31T13:46:42.865Z,10.05
2018-05-31T13:49:11.284Z,10.30
2018-05-31T13:51:39.701Z,9.23
2018-05-31T13:54:08.152Z,9.27
2018-05-31T13:56:36.564Z,9.75
2018-05-31T13:59:04.985Z,9.32
2018-05-31T14:01:33.685Z,9.77
2018-05-31T14:04:02.101Z,10.32
2018-05-31T14:06:30.516Z,10.15
2018-05-31T14:08:58.976Z,11.50
2018-05-31T14:11:27.392Z,10.75
2018-05-31T14:13:55.816Z,10.80
2018-05-31T14:16:24.280Z,10.90
2018-05-31T14:18:52.704Z,11.40
2018-05-31T14:21:21.130Z,10.82
2018-05-31T14:23:49.596Z,12.85
2018-05-31T14:26:18.027Z,12.55
2018-05-31T14:28:46.444Z,13.07
2018-05-31T14:31:14.920Z,12.50
2018-05-31T14:33:43.353Z,11.23
2018-05-31T14:36:11.780Z,11.18
2018-05-31T14:38:40.414Z,11.70
2018-05-31T14:41:08.839Z,13.82
2018-05-31T14:43:37.270Z,13.10
2018-05-31T14:46:05.732Z,13.57
2018-05-31T14:48:34.169Z,13.15
2018-05-31T14:51:02.595Z,13.65
2018-05-31T14:53:31.970Z,14.15
2018-05-31T14:56:00.400Z,15.13
2018-05-31T14:58:28.831Z,14.43
2018-05-31T15:00:57.305Z,13.65
2018-05-31T15:03:25.720Z,15.52
2018-05-31T15:05:54.137Z,14.35
2018-05-31T15:08:22.620Z,15.25
2018-05-31T15:10:51.045Z,15.82
2018-05-31T15:13:19.489Z,15.60
2018-05-31T15:15:47.957Z,16.37
2018-05-31T15:18:16.423Z,17.05
2018-05-31T15:20:44.872Z,14.82
2018-05-31T15:23:13.341Z,16.98
2018-05-31T15:25:41.776Z,16.35
2018-05-31T15:28:10.201Z,16.05
2018-05-31T15:30:38.681Z,16.67
2018-05-31T15:33:07.105Z,16.40
2018-05-31T15:35:35.592Z,16.80
2018-05-31T15:38:04.057Z,15.52
2018-05-31T15:40:32.484Z,17.60
2018-05-31T15:43:00.907Z,16.40
2018-05-31T15:45:29.374Z,15.18
2018-05-31T15:47:57.812Z,15.63
2018-05-31T15:50:26.245Z,16.77
2018-05-31T15:52:54.704Z,16.30
2018-05-31T15:55:23.145Z,15.80
2018-05-31T15:57:51.573Z,16.48
2018-05-31T16:00:20.067Z,15.93
2018-05-31T16:02:48.756Z,16.75
2018-05-31T16:05:17.220Z,15.93
2018-05-31T16:07:45.699Z,15.95
2018-05-31T16:10:14.140Z,14.93
2018-05-31T16:12:42.576Z,16.50
2018-05-31T16:15:11.034Z,14.77
2018-05-31T16:17:39.462Z,17.23
2018-05-31T16:20:07.917Z,16.17
2018-05-31T16:22:36.389Z,17.02
2018-05-31T16:25:04.826Z,15.45
2018-05-31T16:27:33.249Z,17.37
2018-05-31T16:30:01.720Z,17.60
2018-05-31T16:32:30.159Z,17.77
2018-05-31T16:34:58.588Z,18.02
2018-05-31T16:37:27.048Z,16.85
2018-05-31T16:39:55.476Z,16.05
2018-05-31T16:42:23.909Z,16.87
2018-05-31T16:44:52.384Z,18.08
2018-05-31T16:47:20.804Z,17.98
2018-05-31T16:49:49.256Z,18.50
2018-05-31T16:52:17.713Z,17.45
2018-05-31T16:54:46.150Z,16.98
2018-05-31T16:57:14.577Z,16.92
2018-05-31T16:59:43.040Z,17.65
2018-05-31T17:02:11.466Z,16.95
2018-05-31T17:04:39.934Z,17.90
2018-05-31T17:07:08.401Z,18.25
2018-05-31T17:09:36.813Z,18.60
2018-05-31T17:12:05.248Z,19.40
2018-05-31T17:14:33.732Z,18.08
2018-05-31T17:17:02.169Z,17.12
2018-05-31T17:19:30.591Z,20.40
2018-05-31T17:21:59.048Z,19.05
2018-05-31T17:24:27.483Z,20.73
2018-05-31T17:26:55.916Z,22.00
2018-05-31T17:29:24.385Z,22.05
2018-05-31T17:31:52.886Z,20.00
2018-05-31T17:34:21.257Z,20.15
2018-05-31T17:36:49.720Z,20.95
2018-05-31T17:39:18.144Z,21.52
2018-05-31T17:41:46.561Z,20.92
2018-05-31T17:44:15.045Z,21.35
2018-05-31T17:46:43.478Z,22.05
2018-05-31T17:49:11.925Z,22.17
2018-05-31T17:51:40.401Z,22.33
2018-05-31T17:54:08.828Z,21.50
2018-05-31T17:56:37.258Z,21.17
2018-05-31T17:59:05.737Z,19.73
2018-05-31T18:01:34.170Z,18.35
2018-05-31T18:04:02.613Z,18.62
2018-05-31T18:06:31.072Z,19.55
2018-05-31T18:08:59.500Z,20.08
2018-05-31T18:11:27.921Z,19.00
2018-05-31T18:13:56.392Z,20.12
2018-05-31T18:16:24.826Z,20.67
2018-05-31T18:18:53.257Z,21.00
2018-05-31T18:21:21.730Z,20.52
2018-05-31T18:23:50.168Z,19.85
2018-05-31T18:26:18.596Z,19.15
2018-05-31T18:28:47.061Z,18.58
2018-05-31T18:31:15.480Z,23.38
2018-05-31T18:33:43.913Z,22.60
2018-05-31T18:36:12.382Z,23.25
2018-05-31T18:38:40.814Z,20.00
2018-05-31T18:41:09.241Z,19.12
2018-05-31T18:43:37.704Z,19.00
2018-05-31T18:46:06.155Z,16.85
2018-05-31T18:48:34.587Z,17.48
2018-05-31T18:51:03.061Z,17.62
2018-05-31T18:53:31.497Z,17.23
2018-05-31T18:55:59.925Z,17.23
2018-05-31T18:58:28.393Z,18.55
2018-05-31T19:00:56.821Z,18.37
2018-05-31T19:03:25.286Z,17.40
2018-05-31T19:05:53.756Z,18.37
2018-05-31T19:08:22.197Z,18.50
2018-05-31T19:10:50.649Z,18.58
2018-05-31T19:13:24.805Z,16.70
2018-05-31T19:15:53.248Z,17.00
2018-05-31T19:18:27.379Z,18.00
2018-05-31T19:20:55.811Z,18.27
2018-05-31T19:23:24.247Z,18.55
2018-05-31T19:25:52.735Z,19.52
2018-05-31T19:28:21.181Z,20.05
2018-05-31T19:30:55.384Z,19.87
2018-05-31T19:33:23.814Z,20.90
2018-05-31T19:35:57.868Z,20.67
2018-05-31T19:38:26.296Z,19.52
2018-05-31T19:40:54.740Z,20.15
2018-05-31T19:43:29.096Z,21.15
2018-05-31T19:45:57.533Z,21.42
2018-05-31T19:48:25.961Z,21.90
2018-05-31T19:50:54.431Z,22.10
2018-05-31T19:53:28.465Z,21.65
2018-05-31T19:55:56.943Z,21.45
2018-05-31T19:58:30.843Z,22.15
2018-05-31T20:01:04.830Z,21.67
2018-05-31T20:03:33.284Z,21.00
2018-05-31T20:06:01.708Z,21.33
2018-05-31T20:08:30.171Z,20.95
2018-05-31T20:10:58.603Z,21.65
2018-05-31T20:13:27.039Z,20.17
2018-05-31T20:15:55.504Z,23.83
2018-05-31T20:18:23.928Z,22.45
2018-05-31T20:20:52.380Z,22.25
2018-05-31T20:23:20.929Z,21.83
2018-05-31T20:25:49.380Z,21.65
2018-05-31T20:28:17.817Z,20.88
2018-05-31T20:30:46.439Z,21.10
2018-05-31T20:33:14.792Z,20.62
2018-05-31T20:35:43.220Z,20.25
2018-05-31T20:38:11.684Z,20.98
2018-05-31T20:40:40.109Z,20.90
2018-05-31T20:43:08.535Z,21.60
2018-05-31T20:45:37.008Z,20.12
2018-05-31T20:48:05.444Z,22.67
2018-05-31T20:50:33.873Z,20.27
2018-05-31T20:53:02.332Z,19.17
2018-05-31T20:55:30.756Z,21.50
2018-05-31T20:57:59.176Z,22.37
2018-05-31T21:00:27.648Z,22.80
2018-05-31T21:02:56.083Z,22.55
2018-05-31T21:05:24.556Z,22.87
2018-05-31T21:07:53.020Z,21.67
2018-05-31T21:10:21.449Z,22.25
2018-05-31T21:12:49.882Z,20.58
2018-05-31T21:15:18.347Z,23.08
2018-05-31T21:17:47.063Z,21.75
2018-05-31T21:20:15.490Z,23.10
2018-05-31T21:22:43.964Z,21.10
2018-05-31T21:25:12.392Z,20.90
2018-05-31T21:27:40.826Z,21.92
2018-05-31T21:30:09.296Z,25.00
2018-05-31T21:32:37.728Z,20.08
2018-05-31T21:35:06.169Z,14.23
2018-05-31T21:37:34.633Z,14.00
2018-05-31T21:40:03.057Z,15.63
2018-05-31T21:42:31.549Z,10.90
2018-05-31T21:45:00.098Z,11.03
2018-05-31T21:47:28.516Z,11.80
2018-05-31T21:49:56.945Z,16.63
2018-05-31T21:52:25.425Z,12.03
2018-05-31T21:54:53.852Z,10.20
2018-05-31T21:57:22.274Z,14.13
2018-05-31T21:59:50.741Z,14.33
2018-05-31T22:02:19.201Z,11.43
2018-05-31T22:04:47.632Z,11.20
2018-05-31T22:07:16.111Z,12.57
2018-05-31T22:09:44.560Z,11.90
2018-05-31T22:12:13.021Z,11.13
2018-05-31T22:14:41.485Z,10.37
2018-05-31T22:17:09.917Z,9.87
2018-05-31T22:19:38.336Z,11.13
2018-05-31T22:22:06.806Z,10.23
2018-05-31T22:24:35.616Z,10.50
2018-05-31T22:27:04.075Z,12.10
2018-05-31T22:29:32.575Z,11.00
2018-05-31T22:32:01.005Z,10.90
2018-05-31T22:34:29.416Z,10.47
2018-05-31T22:36:57.904Z,10.67
2018-05-31T22:39:26.737Z,11.17
2018-05-31T22:41:55.165Z,10.33
2018-05-31T22:44:23.639Z,11.67
2018-05-31T22:46:52.072Z,13.57
2018-05-31T22:49:20.812Z,12.50
2018-05-31T22:51:49.293Z,12.80
2018-05-31T22:54:17.744Z,12.90
2018-05-31T22:56:46.186Z,11.97
2018-05-31T22:59:14.680Z,13.07
2018-05-31T23:01:43.442Z,12.53
2018-05-31T23:04:11.877Z,12.13
2018-05-31T23:06:40.381Z,11.50
2018-05-31T23:09:08.813Z,12.13
2018-05-31T23:11:37.274Z,11.07
2018-05-31T23:14:05.748Z,13.70
2018-05-31T23:16:34.193Z,11.47
2018-05-31T23:19:02.635Z,14.83
2018-05-31T23:21:31.118Z,13.40
2018-05-31T23:23:59.552Z,12.20
2018-05-31T23:26:28.017Z,12.87
2018-05-31T23:28:56.518Z,12.60
2018-05-31T23:31:24.944Z,11.23
2018-05-31T23:33:53.445Z,12.27
2018-05-31T23:36:21.902Z,12.50
2018-05-31T23:38:50.325Z,11.53
2018-05-31T23:41:18.761Z,13.10
2018-05-31T23:43:47.236Z,11.43
2018-05-31T23:46:15.665Z,10.80
2018-05-31T23:48:44.122Z,12.63
2018-05-31T23:51:12.613Z,12.70
2018-05-31T23:53:41.048Z,11.17
2018-05-31T23:56:09.532Z,13.27
2018-05-31T23:58:38.029Z,12.53
